TimeMST,TemperatureF,Dew PointF,Humidity,Sea Level PressureIn,VisibilityMPH,Wind Direction,Wind SpeedMPH,Gust SpeedMPH,PrecipitationIn,Events,Conditions,WindDirDegrees,DateUTC
12:53 AM,34.0,32.0,92,29.96,9.0,WNW,24.2,34.5,0.00,Snow,Light Snow,300,2012-11-22 07:53:00
1:15 AM,33.8,32.0,93,29.98,2.0,WNW,26.5,34.5,0.00,Snow,Light Snow,300,2012-11-22 08:15:00
1:22 AM,33.8,32.0,93,29.98,1.2,WNW,23.0,34.5,0.00,Snow,Light Snow,290,2012-11-22 08:22:00
1:30 AM,33.8,32.0,93,29.98,1.8,WNW,17.3,28.8,0.01,Snow,Light Snow,290,2012-11-22 08:30:00
1:33 AM,33.8,30.2,87,29.98,3.0,West,17.3,26.5,0.01,Snow,Light Snow,280,2012-11-22 08:33:00
1:42 AM,33.8,30.2,87,29.97,9.0,West,17.3,25.3,0.01,,Overcast,280,2012-11-22 08:42:00
1:53 AM,34.0,30.9,89,29.95,10.0,NW,10.4,-,0.01,,Overcast,310,2012-11-22 08:53:00
2:53 AM,35.1,27.0,72,29.97,10.0,NW,11.5,-,N/A,,Overcast,310,2012-11-22 09:53:00
3:53 AM,32.0,25.0,75,30.02,10.0,NW,5.8,-,N/A,,Clear,310,2012-11-22 10:53:00
4:53 AM,27.0,21.9,81,30.07,10.0,West,8.1,-,N/A,,Clear,280,2012-11-22 11:53:00
5:53 AM,24.1,19.0,81,30.12,10.0,West,4.6,-,N/A,,Clear,280,2012-11-22 12:53:00
6:53 AM,23.0,17.1,78,30.16,10.0,South,4.6,-,N/A,,Clear,170,2012-11-22 13:53:00
7:53 AM,30.0,19.9,66,30.20,10.0,NW,5.8,-,N/A,,Mostly Cloudy,320,2012-11-22 14:53:00
8:53 AM,32.0,21.0,64,30.22,10.0,WNW,8.1,-,N/A,,Clear,290,2012-11-22 15:53:00
9:53 AM,39.0,26.1,60,30.24,10.0,North,8.1,-,N/A,,Clear,360,2012-11-22 16:53:00
10:53 AM,37.9,19.0,47,30.28,10.0,NNW,19.6,27.6,N/A,,Partly Cloudy,330,2012-11-22 17:53:00
11:53 AM,39.9,15.1,36,30.30,10.0,NW,25.3,39.1,N/A,,Mostly Cloudy,320,2012-11-22 18:53:00
12:53 PM,43.0,14.0,31,30.30,10.0,NW,32.2,36.8,N/A,,Mostly Cloudy,320,2012-11-22 19:53:00
1:53 PM,42.1,12.0,29,30.33,10.0,NNW,31.1,38.0,N/A,,Clear,330,2012-11-22 20:53:00
2:53 PM,39.9,12.9,33,30.35,10.0,NW,19.6,33.4,N/A,,Clear,320,2012-11-22 21:53:00
3:53 PM,37.0,17.1,44,30.42,10.0,NNW,13.8,-,N/A,,Clear,340,2012-11-22 22:53:00
4:53 PM,32.0,18.0,56,30.48,10.0,WNW,9.2,-,N/A,,Clear,300,2012-11-22 23:53:00
5:53 PM,28.0,19.0,69,30.52,10.0,WNW,12.7,-,N/A,,Clear,300,2012-11-23 00:53:00
6:53 PM,27.0,19.9,75,30.58,10.0,Calm,Calm,-,N/A,,Clear,0,2012-11-23 01:53:00
7:53 PM,24.1,19.0,81,30.59,10.0,South,3.5,-,N/A,,Clear,170,2012-11-23 02:53:00
8:53 PM,19.0,16.0,88,30.60,10.0,NNW,4.6,-,N/A,,Clear,330,2012-11-23 03:53:00
9:53 PM,19.0,16.0,88,30.58,10.0,SSW,3.5,-,N/A,,Clear,210,2012-11-23 04:53:00
10:53 PM,19.9,16.0,85,30.57,10.0,South,3.5,-,N/A,,Clear,190,2012-11-23 05:53:00
11:53 PM,16.0,12.9,88,30.59,10.0,Calm,Calm,-,N/A,,Clear,0,2012-11-23 06:53:00